Time;durP1;ratioP1;P1;durP2;ratioP2;P2;SDS_P1;SDS_P2;PMS_P1;PMS_P2;Temp;Humidity;BMP_temperature;BMP_pressure;BME280_temperature;BME280_humidity;BME280_pressure;Samples;Min_cycle;Max_cycle;Signal;HPM_P1;HPM_P2
2022/06/23 00:01:12;;;;;;;11.07;5.85;;;28.10;91.40;;;;;;5062802;28;20045;-58
2022/06/23 00:03:39;;;;;;;12.88;4.95;;;28.00;91.50;;;;;;5062507;28;20305;-59
2022/06/23 00:06:08;;;;;;;9.30;4.40;;;28.00;91.40;;;;;;5061710;28;20028;-61
2022/06/23 00:08:46;;;;;;;9.18;3.75;;;28.00;91.40;;;;;;5063290;28;20126;-59
2022/06/23 00:11:24;;;;;;;8.10;3.25;;;27.90;91.40;;;;;;5063238;28;20017;-59
2022/06/23 00:13:54;;;;;;;6.55;2.85;;;27.90;91.30;;;;;;5063349;28;20033;-60
2022/06/23 00:16:26;;;;;;;6.38;2.13;;;27.80;91.40;;;;;;5062799;28;20342;-60
2022/06/23 00:18:53;;;;;;;5.80;1.73;;;27.80;91.40;;;;;;5062905;28;20088;-59
2022/06/23 00:21:28;;;;;;;5.03;1.70;;;27.80;91.40;;;;;;5062725;28;20013;-58
2022/06/23 00:24:01;;;;;;;8.23;1.70;;;27.70;91.40;;;;;;5062988;28;20280;-58
2022/06/23 00:26:32;;;;;;;4.90;1.67;;;27.70;91.40;;;;;;5062802;28;20200;-59
2022/06/23 00:29:10;;;;;;;3.40;1.40;;;27.70;91.40;;;;;;5063307;28;20033;-59
2022/06/23 00:31:44;;;;;;;6.38;1.58;;;27.70;91.40;;;;;;5062716;28;20088;-59
2022/06/23 00:34:25;;;;;;;5.40;1.58;;;27.70;91.50;;;;;;5063094;28;20078;-59
2022/06/23 00:37:11;;;;;;;10.32;7.63;;;27.70;91.40;;;;;;5066282;28;20102;-59
2022/06/23 00:39:55;;;;;;;7.55;3.78;;;27.70;91.40;;;;;;5066316;28;20025;-59
2022/06/23 00:42:29;;;;;;;6.60;2.50;;;27.70;91.30;;;;;;5066168;28;20293;-59
2022/06/23 00:45:11;;;;;;;7.65;2.03;;;27.80;91.30;;;;;;5066253;28;20361;-60
2022/06/23 00:48:23;;;;;;;6.67;2.50;;;27.70;91.10;;;;;;5066314;28;20025;-59
2022/06/23 00:51:11;;;;;;;5.65;1.60;;;27.70;91.10;;;;;;5062127;28;20447;-59
2022/06/23 00:53:49;;;;;;;5.78;1.40;;;27.70;91.10;;;;;;5066224;28;20272;-60
2022/06/23 00:56:37;;;;;;;6.88;2.10;;;27.70;91.10;;;;;;5065846;28;20017;-59
2022/06/23 00:59:21;;;;;;;7.13;2.20;;;27.60;91.20;;;;;;5066448;28;20017;-59
2022/06/23 01:01:57;;;;;;;7.60;1.35;;;27.50;91.40;;;;;;5065916;28;20264;-58
2022/06/23 01:05:11;;;;;;;6.32;1.27;;;27.50;91.40;;;;;;5066124;28;20184;-59
2022/06/23 01:08:02;;;;;;;4.05;0.98;;;27.50;91.40;;;;;;5057152;28;20419;-59
2022/06/23 01:10:37;;;;;;;8.93;1.40;;;27.50;91.30;;;;;;5066024;28;20016;-59
2022/06/23 01:13:31;;;;;;;5.72;1.10;;;27.50;91.20;;;;;;5065914;28;20029;-60
2022/06/23 01:16:09;;;;;;;10.40;1.20;;;27.50;91.20;;;;;;5065782;28;20261;-57
2022/06/23 01:18:39;;;;;;;2.83;0.85;;;27.40;91.30;;;;;;5064712;28;20097;-58
2022/06/23 01:21:41;;;;;;;5.85;1.30;;;27.40;91.50;;;;;;5064660;28;20013;-57
2022/06/23 01:24:07;;;;;;;;;;;27.40;91.50;;;;;;5063344;28;20342;-57
2022/06/23 01:27:02;;;;;;;8.13;2.20;;;27.40;91.30;;;;;;5065324;28;19901;-57
2022/06/23 01:29:51;;;;;;;8.52;1.98;;;27.40;91.30;;;;;;5065301;28;20025;-58
2022/06/23 01:32:47;;;;;;;5.47;2.03;;;27.40;91.20;;;;;;5058609;28;20025;-58
2022/06/23 01:35:20;;;;;;;3.60;1.20;;;27.40;90.90;;;;;;5045370;28;20301;-58
2022/06/23 01:37:54;;;;;;;4.20;1.00;;;27.30;90.80;;;;;;5054183;28;20027;-59
2022/06/23 01:40:43;;;;;;;8.48;1.20;;;27.30;90.80;;;;;;5065461;28;20031;-60
2022/06/23 01:43:21;;;;;;;6.32;0.82;;;27.30;90.70;;;;;;5065308;28;20108;-56
2022/06/23 01:45:54;;;;;;;4.32;1.60;;;27.30;90.70;;;;;;5064699;28;20325;-59
2022/06/23 01:48:53;;;;;;;;;;;27.30;90.60;;;;;;5065729;28;20055;-61
2022/06/23 01:51:28;;;;;;;8.25;1.20;;;27.30;90.50;;;;;;5065388;28;19901;-57
2022/06/23 01:54:07;;;;;;;4.18;1.30;;;27.30;90.30;;;;;;5065648;28;20029;-56
2022/06/23 01:57:03;;;;;;;11.48;1.75;;;27.30;90.20;;;;;;5065304;28;20020;-57
2022/06/23 01:59:39;;;;;;;5.78;1.10;;;27.30;90.30;;;;;;5065102;28;20032;-55
2022/06/23 02:02:12;;;;;;;3.80;0.90;;;27.30;90.40;;;;;;5065048;28;20428;-57
2022/06/23 02:04:53;;;;;;;4.68;1.00;;;27.30;90.60;;;;;;5064617;28;20024;-57
2022/06/23 02:07:42;;;;;;;4.03;0.80;;;27.30;90.60;;;;;;5065234;28;20380;-58
2022/06/23 02:10:21;;;;;;;5.78;0.90;;;27.20;90.50;;;;;;5064904;28;20224;-59
2022/06/23 02:13:04;;;;;;;7.75;1.00;;;27.20;90.60;;;;;;5065136;28;20070;-58
2022/06/23 02:15:58;;;;;;;4.88;0.70;;;27.20;90.50;;;;;;5064745;28;20321;-59
2022/06/23 02:19:04;;;;;;;4.57;0.60;;;27.10;90.50;;;;;;5064789;28;20024;-58
2022/06/23 02:21:43;;;;;;;6.05;0.70;;;27.10;90.50;;;;;;5046994;28;20029;-59
2022/06/23 02:24:49;;;;;;;6.20;0.90;;;27.10;90.40;;;;;;5065211;28;20088;-59
2022/06/23 02:27:25;;;;;;;5.43;1.00;;;27.10;90.70;;;;;;5064688;28;20036;-58
2022/06/23 02:30:00;;;;;;;4.88;0.90;;;27.00;90.90;;;;;;5064336;28;20024;-58
2022/06/23 02:32:36;;;;;;;4.43;0.85;;;27.00;90.70;;;;;;5064433;28;20047;-57
2022/06/23 02:35:19;;;;;;;3.45;0.60;;;27.10;90.60;;;;;;5058153;28;20317;-54
2022/06/23 02:38:01;;;;;;;8.95;1.08;;;27.00;90.40;;;;;;5047837;28;20060;-55
2022/06/23 02:40:41;;;;;;;6.00;0.73;;;27.10;90.50;;;;;;5063638;28;20055;-51
2022/06/23 02:43:25;;;;;;;3.80;0.70;;;27.10;90.40;;;;;;5064752;28;20025;-49
2022/06/23 02:46:23;;;;;;;6.07;0.60;;;27.10;90.40;;;;;;5064197;28;20067;-54
2022/06/23 02:49:05;;;;;;;3.13;0.70;;;27.20;90.40;;;;;;5059820;28;20025;-54
2022/06/23 02:51:59;;;;;;;2.88;0.60;;;27.20;90.50;;;;;;5044457;28;20021;-50
2022/06/23 02:54:56;;;;;;;4.72;0.95;;;27.20;90.40;;;;;;5044501;28;20093;-48
2022/06/23 02:57:33;;;;;;;5.63;0.82;;;27.20;90.60;;;;;;5044070;28;20069;-53
2022/06/23 03:00:25;;;;;;;5.43;1.52;;;27.20;90.60;;;;;;5044170;28;20124;-50
2022/06/23 03:03:01;;;;;;;5.28;2.55;;;27.20;90.60;;;;;;5043103;28;20347;-51
2022/06/23 03:05:48;;;;;;;11.85;6.18;;;27.20;90.70;;;;;;5044195;28;20083;-51
2022/06/23 03:08:30;;;;;;;7.85;4.25;;;27.20;90.80;;;;;;5044586;28;20029;-53
2022/06/23 03:11:09;;;;;;;;;;;27.20;90.80;;;;;;5048753;28;20025;-57
2022/06/23 03:13:48;;;;;;;7.57;6.10;;;27.20;91.00;;;;;;5064115;28;19913;-55
2022/06/23 03:16:35;;;;;;;11.27;7.75;;;27.10;90.60;;;;;;5063907;28;20017;-49
2022/06/23 03:19:10;;;;;;;14.38;11.25;;;27.10;90.70;;;;;;5063870;28;20025;-51
2022/06/23 03:21:54;;;;;;;13.07;8.02;;;27.10;90.80;;;;;;5063880;28;20017;-51
2022/06/23 03:24:38;;;;;;;14.23;10.18;;;27.10;90.70;;;;;;5064491;28;20036;-60
2022/06/23 03:27:27;;;;;;;13.00;7.47;;;27.10;90.70;;;;;;5063789;28;20017;-52
2022/06/23 03:30:21;;;;;;;10.32;7.40;;;27.10;90.60;;;;;;5063739;28;20027;-52
2022/06/23 03:33:03;;;;;;;8.68;6.07;;;27.10;90.60;;;;;;5046269;28;20343;-50
2022/06/23 03:35:41;;;;;;;9.63;6.28;;;27.10;90.70;;;;;;5063811;28;20208;-55
2022/06/23 03:38:07;;;;;;;9.98;5.10;;;27.10;90.60;;;;;;5063917;28;20048;-51
2022/06/23 03:43:34;;;;;;;5.22;2.88;;;27.10;90.80;;;;;;5060781;28;20043;-51
2022/06/23 03:46:24;;;;;;;5.15;2.83;;;27.10;90.90;;;;;;5063396;28;20017;-58
2022/06/23 03:49:16;;;;;;;6.22;2.45;;;27.10;90.90;;;;;;5061758;28;20021;-49
2022/06/23 03:51:56;;;;;;;5.22;2.00;;;27.10;90.80;;;;;;5040900;28;20057;-49
2022/06/23 03:54:32;;;;;;;5.60;1.90;;;27.00;90.80;;;;;;5044194;28;20089;-61
2022/06/23 03:57:20;;;;;;;4.55;1.63;;;27.00;90.80;;;;;;5043649;28;20017;-55
2022/06/23 04:00:05;;;;;;;6.63;1.20;;;27.00;90.80;;;;;;5043448;28;20046;-56
2022/06/23 04:02:41;;;;;;;4.63;1.40;;;26.90;90.80;;;;;;5043561;28;20089;-49
2022/06/23 04:05:15;;;;;;;10.85;1.23;;;27.00;90.80;;;;;;5043602;28;20017;-48
2022/06/23 04:07:53;;;;;;;4.20;1.10;;;27.00;90.80;;;;;;5043510;28;20029;-49
2022/06/23 04:10:27;;;;;;;2.80;0.80;;;27.00;90.80;;;;;;5045923;28;20025;-51
2022/06/23 04:12:59;;;;;;;4.03;0.90;;;27.00;90.70;;;;;;5047479;28;20091;-55
2022/06/23 04:15:34;;;;;;;5.47;0.80;;;26.90;90.60;;;;;;5047654;28;20017;-56
2022/06/23 04:18:05;;;;;;;4.97;0.90;;;26.90;90.60;;;;;;5047559;28;20036;-48
2022/06/23 04:20:39;;;;;;;3.60;0.70;;;26.90;90.60;;;;;;5047243;28;20096;-52
2022/06/23 04:23:15;;;;;;;3.45;0.95;;;26.90;90.60;;;;;;5047430;28;20030;-52
2022/06/23 04:26:06;;;;;;;4.80;0.90;;;26.90;90.50;;;;;;5047061;28;20014;-53
2022/06/23 04:28:44;;;;;;;6.97;0.95;;;26.90;90.60;;;;;;5047431;28;20029;-50
2022/06/23 04:31:20;;;;;;;2.55;0.60;;;26.90;90.60;;;;;;5047159;28;20021;-53
2022/06/23 04:33:48;;;;;;;3.30;0.60;;;26.90;90.60;;;;;;5047474;28;20025;-49
2022/06/23 04:36:21;;;;;;;5.00;0.98;;;26.90;90.50;;;;;;5046850;28;20120;-48
2022/06/23 04:39:05;;;;;;;4.93;0.60;;;26.90;90.50;;;;;;5046859;28;20032;-53
2022/06/23 04:41:37;;;;;;;7.80;0.68;;;26.90;90.50;;;;;;5046874;28;20022;-49
2022/06/23 04:44:29;;;;;;;4.60;0.73;;;26.90;90.50;;;;;;5047338;28;20085;-49
2022/06/23 04:46:58;;;;;;;;;;;26.90;90.50;;;;;;5047194;28;20341;-54
2022/06/23 04:49:44;;;;;;;4.45;0.85;;;26.80;90.60;;;;;;5047252;28;20070;-51
2022/06/23 04:52:41;;;;;;;2.38;0.52;;;26.80;90.60;;;;;;5058500;28;20021;-54
2022/06/23 04:55:28;;;;;;;4.90;0.90;;;26.80;90.60;;;;;;5066536;28;20079;-52
2022/06/23 04:58:04;;;;;;;6.50;0.80;;;26.80;90.50;;;;;;5066824;28;20013;-49
2022/06/23 05:00:38;;;;;;;3.28;0.60;;;26.80;90.50;;;;;;5066254;28;20368;-52
2022/06/23 05:03:18;;;;;;;6.15;0.73;;;26.80;90.40;;;;;;5066664;28;20053;-51
2022/06/23 05:05:53;;;;;;;2.70;0.60;;;26.80;90.50;;;;;;5066454;28;20017;-50
2022/06/23 05:08:32;;;;;;;4.38;0.52;;;26.70;90.50;;;;;;5066939;28;20071;-51
2022/06/23 05:11:22;;;;;;;2.55;0.70;;;26.70;90.40;;;;;;5066247;28;20277;-53
2022/06/23 05:13:55;;;;;;;4.95;0.60;;;26.70;90.20;;;;;;5066640;28;20080;-49
2022/06/23 05:16:28;;;;;;;7.25;0.95;;;26.70;90.20;;;;;;5066292;28;20093;-52
2022/06/23 05:18:57;;;;;;;5.38;0.82;;;26.70;90.10;;;;;;5066243;28;20024;-49
2022/06/23 05:21:43;;;;;;;2.65;0.60;;;26.70;90.00;;;;;;5066132;28;20025;-50
2022/06/23 05:24:26;;;;;;;4.38;0.60;;;26.70;90.00;;;;;;5066564;28;20021;-51
2022/06/23 05:26:58;;;;;;;2.85;0.57;;;26.70;89.80;;;;;;5066004;28;20028;-50
2022/06/23 05:29:33;;;;;;;4.40;0.70;;;26.70;89.80;;;;;;5066730;28;20020;-52
2022/06/23 05:32:24;;;;;;;1.85;0.47;;;26.70;89.80;;;;;;5065894;28;20032;-50
2022/06/23 05:35:24;;;;;;;4.15;0.77;;;26.60;89.80;;;;;;5065949;28;20028;-49
2022/06/23 05:38:06;;;;;;;4.55;0.63;;;26.60;90.00;;;;;;5057143;28;20025;-48
2022/06/23 05:41:05;;;;;;;2.55;0.47;;;26.60;90.00;;;;;;5065954;28;20017;-52
2022/06/23 05:43:39;;;;;;;3.00;0.60;;;26.60;89.90;;;;;;5061956;28;20105;-48
2022/06/23 05:46:06;;;;;;;6.90;0.82;;;26.60;89.80;;;;;;5065626;28;20048;-52
2022/06/23 05:48:38;;;;;;;4.82;0.70;;;26.60;89.90;;;;;;5066118;28;20021;-49
2022/06/23 05:51:10;;;;;;;1.77;0.32;;;26.60;89.90;;;;;;5065820;28;20021;-53
2022/06/23 05:54:01;;;;;;;5.82;0.43;;;26.60;90.00;;;;;;5065932;28;20040;-50
2022/06/23 05:56:43;;;;;;;6.60;0.60;;;26.50;90.10;;;;;;5065430;28;20025;-49
2022/06/23 05:59:38;;;;;;;2.70;0.40;;;26.50;89.90;;;;;;5065716;28;20070;-49
2022/06/23 06:02:21;;;;;;;3.90;0.50;;;26.50;90.00;;;;;;5057431;28;20241;-50
2022/06/23 06:04:52;;;;;;;1.52;0.43;;;26.50;89.60;;;;;;5065475;28;20088;-51
2022/06/23 06:07:22;;;;;;;2.80;0.35;;;26.50;89.20;;;;;;5065254;28;20021;-49
2022/06/23 06:09:50;;;;;;;6.68;0.60;;;26.60;89.10;;;;;;5065084;28;20025;-51
2022/06/23 06:12:27;;;;;;;5.97;0.50;;;26.60;88.80;;;;;;5065533;28;20017;-48
2022/06/23 06:15:17;;;;;;;3.30;0.55;;;26.50;88.50;;;;;;5065110;28;20021;-52
2022/06/23 06:17:44;;;;;;;4.35;0.40;;;26.60;88.30;;;;;;5065125;28;20021;-49
2022/06/23 06:20:13;;;;;;;3.40;0.50;;;26.60;88.20;;;;;;5064873;28;20205;-51
2022/06/23 06:23:05;;;;;;;2.95;0.50;;;26.60;88.00;;;;;;5065230;28;20088;-52
2022/06/23 06:25:35;;;;;;;3.05;0.30;;;26.60;87.80;;;;;;5064878;28;20027;-56
2022/06/23 06:28:17;;;;;;;4.25;0.60;;;26.60;87.90;;;;;;5065316;28;20040;-51
2022/06/23 06:31:16;;;;;;;3.70;0.68;;;26.50;87.80;;;;;;5064652;28;20032;-49
2022/06/23 06:34:24;;;;;;;4.13;0.75;;;26.50;87.80;;;;;;5063267;28;20037;-50
2022/06/23 06:36:53;;;;;;;4.20;0.30;;;26.50;88.00;;;;;;5064895;28;20305;-54
2022/06/23 06:39:25;;;;;;;3.13;0.75;;;26.40;88.10;;;;;;5065099;28;20096;-49
2022/06/23 06:42:00;;;;;;;2.53;0.50;;;26.50;88.30;;;;;;5064824;28;20100;-52
2022/06/23 06:44:27;;;;;;;2.70;0.38;;;26.40;88.70;;;;;;5064550;28;20075;-52
2022/06/23 06:46:55;;;;;;;4.38;0.43;;;26.40;88.80;;;;;;5064451;28;20013;-58
2022/06/23 06:49:23;;;;;;;6.60;0.70;;;26.40;88.80;;;;;;5065012;28;20021;-50
2022/06/23 06:51:53;;;;;;;2.95;0.50;;;26.40;88.80;;;;;;5064325;28;20076;-52
2022/06/23 06:54:29;;;;;;;5.57;0.52;;;26.40;88.70;;;;;;5064979;28;20084;-48
2022/06/23 06:56:59;;;;;;;3.17;0.68;;;26.40;89.20;;;;;;5064465;28;20032;-53
2022/06/23 06:59:55;;;;;;;3.17;0.50;;;26.40;89.10;;;;;;5064111;28;20052;-50
2022/06/23 07:03:00;;;;;;;5.28;0.55;;;26.40;89.10;;;;;;5064241;28;20025;-48
2022/06/23 07:05:29;;;;;;;2.80;0.60;;;26.40;88.80;;;;;;5053291;28;20255;-51
2022/06/23 07:08:10;;;;;;;3.60;0.45;;;26.40;88.90;;;;;;5064316;28;20029;-56
2022/06/23 07:10:43;;;;;;;2.88;0.57;;;26.40;89.30;;;;;;5064692;28;20025;-51
2022/06/23 07:13:11;;;;;;;;;;;26.30;89.50;;;;;;5064683;28;20025;-49
2022/06/23 07:16:04;;;;;;;4.15;0.63;;;26.30;89.60;;;;;;5064200;28;19901;-50
2022/06/23 07:18:38;;;;;;;9.02;0.85;;;26.30;90.00;;;;;;5062226;28;20040;-53
2022/06/23 07:21:10;;;;;;;5.15;0.75;;;26.30;90.10;;;;;;5064063;28;20081;-51
2022/06/23 07:24:01;;;;;;;8.32;0.88;;;26.30;90.20;;;;;;5064638;28;20029;-49
2022/06/23 07:26:43;;;;;;;7.05;0.80;;;26.30;90.30;;;;;;5063984;28;20371;-56
2022/06/23 07:29:39;;;;;;;4.43;0.70;;;26.30;90.50;;;;;;5064416;28;20095;-49
2022/06/23 07:32:34;;;;;;;4.50;0.88;;;26.20;90.60;;;;;;5063722;28;20024;-55
2022/06/23 07:35:39;;;;;;;7.47;0.95;;;26.20;90.70;;;;;;5063733;28;20021;-50
2022/06/23 07:38:15;;;;;;;5.35;0.70;;;26.20;90.80;;;;;;5062508;28;20036;-50
2022/06/23 07:40:51;;;;;;;3.53;0.60;;;26.20;90.80;;;;;;5063743;28;20013;-53
2022/06/23 07:43:29;;;;;;;2.83;0.60;;;26.20;90.90;;;;;;5064106;28;20029;-51
2022/06/23 07:45:59;;;;;;;4.05;0.60;;;26.20;90.90;;;;;;5067200;28;20017;-46
2022/06/23 07:48:28;;;;;;;3.58;0.70;;;26.10;91.10;;;;;;5068307;28;20027;-54
2022/06/23 07:50:56;;;;;;;6.18;0.85;;;26.10;91.00;;;;;;5067601;28;20221;-53
2022/06/23 07:53:27;;;;;;;2.60;0.55;;;26.10;91.00;;;;;;5067914;28;20063;-46
2022/06/23 07:55:54;;;;;;;3.53;0.60;;;26.10;91.00;;;;;;5067789;28;20079;-54
2022/06/23 07:58:28;;;;;;;2.85;0.73;;;26.10;91.20;;;;;;5067475;28;20384;-51
2022/06/23 08:01:17;;;;;;;2.88;0.68;;;26.10;91.10;;;;;;5067585;28;20058;-48
2022/06/23 08:03:56;;;;;;;3.17;0.60;;;26.10;91.10;;;;;;5067922;28;20029;-51
2022/06/23 08:06:24;;;;;;;5.05;0.70;;;26.10;91.20;;;;;;5067635;28;20345;-49
2022/06/23 08:08:58;;;;;;;3.97;0.57;;;26.10;91.30;;;;;;5067733;28;20070;-53
2022/06/23 08:14:23;;;;;;;3.97;0.75;;;26.00;91.20;;;;;;5067990;28;20048;-52
2022/06/23 08:16:49;;;;;;;4.75;0.60;;;26.00;91.30;;;;;;5067596;28;20013;-52
2022/06/23 08:19:38;;;;;;;7.03;0.75;;;26.00;91.20;;;;;;5067620;28;20025;-51
2022/06/23 08:22:10;;;;;;;3.00;0.60;;;26.00;91.20;;;;;;5067162;28;20067;-52
2022/06/23 08:24:38;;;;;;;6.93;0.70;;;26.00;91.30;;;;;;5067081;28;20028;-48
2022/06/23 08:27:16;;;;;;;3.35;0.63;;;26.00;91.30;;;;;;5067018;28;20242;-49
2022/06/23 08:29:48;;;;;;;2.95;0.60;;;26.00;91.10;;;;;;5066948;28;20029;-51
2022/06/23 08:32:16;;;;;;;3.38;0.73;;;26.00;91.00;;;;;;5066990;28;20190;-50
2022/06/23 08:34:57;;;;;;;4.97;0.68;;;26.00;91.00;;;;;;5067183;28;20048;-49
2022/06/23 08:37:24;;;;;;;4.32;0.68;;;26.00;91.10;;;;;;5067138;28;20086;-55
2022/06/23 08:40:01;;;;;;;9.13;2.20;;;26.00;91.40;;;;;;5066901;28;20313;-52
2022/06/23 08:42:49;;;;;;;14.70;3.60;;;26.00;91.90;;;;;;5066887;28;20035;-54
2022/06/23 08:45:19;;;;;;;11.20;2.92;;;26.00;92.70;;;;;;5066827;28;20025;-51
2022/06/23 08:47:54;;;;;;;8.63;2.28;;;26.00;92.90;;;;;;5066924;28;20017;-51
2022/06/23 08:50:43;;;;;;;9.77;2.00;;;26.00;92.90;;;;;;5066676;28;20203;-49
2022/06/23 08:53:46;;;;;;;9.48;2.20;;;26.00;93.10;;;;;;5067003;28;20070;-49
2022/06/23 08:56:32;;;;;;;7.10;1.58;;;26.00;93.30;;;;;;5066117;28;20040;-50
2022/06/23 08:59:24;;;;;;;11.30;2.45;;;26.00;93.60;;;;;;5066534;28;20060;-57
2022/06/23 09:02:05;;;;;;;8.45;1.80;;;26.00;93.80;;;;;;5058178;28;20049;-51
2022/06/23 09:04:38;;;;;;;11.15;2.60;;;26.00;93.60;;;;;;5066278;28;20103;-53
2022/06/23 09:07:31;;;;;;;17.13;2.72;;;26.00;93.90;;;;;;5066549;28;20297;-51
2022/06/23 09:10:12;;;;;;;9.77;2.30;;;26.00;93.90;;;;;;5066584;28;20320;-52
2022/06/23 09:12:49;;;;;;;10.65;2.30;;;26.00;93.90;;;;;;5066503;28;20040;-56
2022/06/23 09:15:29;;;;;;;7.40;1.65;;;26.00;94.10;;;;;;5066498;28;20025;-50
2022/06/23 09:18:26;;;;;;;8.05;1.35;;;26.00;94.40;;;;;;5066516;28;20021;-51
2022/06/23 09:21:13;;;;;;;8.38;1.65;;;25.90;94.20;;;;;;5066296;28;20021;-48
2022/06/23 09:23:52;;;;;;;5.85;1.27;;;25.90;94.20;;;;;;5066657;28;20261;-56
2022/06/23 09:26:44;;;;;;;7.78;1.77;;;25.90;94.30;;;;;;5066166;28;20021;-53
2022/06/23 09:29:32;;;;;;;5.78;1.52;;;25.90;94.30;;;;;;5066692;28;20055;-55
2022/06/23 09:32:21;;;;;;;6.30;1.20;;;25.90;94.30;;;;;;5065754;28;20029;-50
2022/06/23 09:35:21;;;;;;;6.60;1.30;;;25.90;94.30;;;;;;5062276;28;20238;-52
2022/06/23 09:37:56;;;;;;;5.22;1.13;;;25.90;94.30;;;;;;5064779;28;20079;-51
2022/06/23 09:40:47;;;;;;;4.07;1.08;;;25.90;94.30;;;;;;5065812;28;20082;-49
2022/06/23 09:43:40;;;;;;;8.68;1.17;;;25.90;94.30;;;;;;5066060;28;20205;-51
2022/06/23 09:46:09;;;;;;;4.55;0.85;;;25.90;94.30;;;;;;5057765;28;20224;-52
2022/06/23 09:49:23;;;;;;;7.25;1.10;;;25.90;94.30;;;;;;5065766;28;20309;-51
2022/06/23 09:51:58;;;;;;;3.38;1.02;;;25.90;94.20;;;;;;5063628;28;20037;-52
2022/06/23 09:54:47;;;;;;;4.38;0.93;;;25.90;94.20;;;;;;5065848;28;20044;-49
2022/06/23 09:57:25;;;;;;;2.55;0.93;;;25.90;94.20;;;;;;5065346;28;20217;-51
2022/06/23 10:00:15;;;;;;;5.80;1.15;;;25.90;94.20;;;;;;5065342;28;20044;-47
2022/06/23 10:02:52;;;;;;;3.40;0.70;;;25.90;94.10;;;;;;5065718;28;20025;-55
2022/06/23 10:05:33;;;;;;;1.67;0.60;;;25.80;93.90;;;;;;5065310;28;20020;-49
2022/06/23 10:08:35;;;;;;;4.60;0.77;;;25.80;93.90;;;;;;5065159;28;20029;-54
2022/06/23 10:11:28;;;;;;;4.90;0.90;;;25.80;94.10;;;;;;5065401;28;20089;-52
2022/06/23 10:14:20;;;;;;;3.92;0.60;;;25.80;93.60;;;;;;5065241;28;20350;-50
2022/06/23 10:17:22;;;;;;;3.97;0.47;;;25.80;93.70;;;;;;5065312;28;20020;-57
2022/06/23 10:20:13;;;;;;;7.32;1.15;;;25.80;93.60;;;;;;5065229;28;20267;-56
2022/06/23 10:22:58;;;;;;;4.20;0.60;;;25.80;93.60;;;;;;5065156;28;20331;-48
2022/06/23 10:25:46;;;;;;;3.70;0.70;;;25.70;93.60;;;;;;5065126;28;20021;-53
2022/06/23 10:28:36;;;;;;;2.95;0.60;;;25.70;93.60;;;;;;5065157;28;20273;-49
2022/06/23 10:31:27;;;;;;;4.50;0.85;;;25.80;93.70;;;;;;5065135;28;20024;-51
2022/06/23 10:34:15;;;;;;;3.33;0.60;;;25.80;93.80;;;;;;5065071;28;20032;-51
2022/06/23 10:36:48;;;;;;;3.65;0.60;;;25.80;93.90;;;;;;5064740;28;20312;-57
2022/06/23 10:39:51;;;;;;;4.07;0.90;;;25.80;93.80;;;;;;5064955;28;20028;-49
2022/06/23 10:42:45;;;;;;;4.40;0.80;;;25.80;93.90;;;;;;5064450;28;20213;-50
2022/06/23 10:45:49;;;;;;;4.28;1.02;;;25.80;93.90;;;;;;5064556;28;20308;-59
2022/06/23 10:48:53;;;;;;;3.13;0.70;;;25.80;93.90;;;;;;5064808;28;20140;-54
2022/06/23 10:52:07;;;;;;;3.10;0.73;;;25.80;93.90;;;;;;5064178;28;20029;-53
2022/06/23 10:54:52;;;;;;;3.42;0.60;;;25.80;93.90;;;;;;5064729;28;20025;-54
2022/06/23 10:57:33;;;;;;;6.20;1.15;;;25.80;93.90;;;;;;5064902;28;20092;-48
2022/06/23 11:00:15;;;;;;;7.45;0.95;;;25.80;93.90;;;;;;5064244;28;20375;-51
2022/06/23 11:03:11;;;;;;;8.40;0.90;;;25.80;93.90;;;;;;5064324;28;20056;-50
2022/06/23 11:05:48;;;;;;;7.85;1.17;;;25.80;93.90;;;;;;5064124;28;20079;-51
2022/06/23 11:08:35;;;;;;;10.40;1.58;;;25.90;93.90;;;;;;5064476;28;20088;-62
2022/06/23 11:11:26;;;;;;;5.68;0.90;;;25.90;94.00;;;;;;5063987;28;20044;-50
2022/06/23 11:14:02;;;;;;;7.25;1.00;;;26.00;93.80;;;;;;5063880;28;20017;-52
2022/06/23 11:16:31;;;;;;;5.80;0.80;;;26.20;93.50;;;;;;5063940;28;20021;-52
2022/06/23 11:19:34;;;;;;;5.25;0.95;;;26.40;93.20;;;;;;5064726;28;20171;-49
2022/06/23 11:22:19;;;;;;;;;;;26.60;92.90;;;;;;5054844;28;20260;-50
2022/06/23 11:25:04;;;;;;;7.00;1.15;;;26.90;92.60;;;;;;5062306;28;20443;-51
2022/06/23 11:27:39;;;;;;;8.80;0.98;;;27.00;92.30;;;;;;5062266;28;20050;-55
2022/06/23 11:30:26;;;;;;;4.13;1.00;;;27.10;92.10;;;;;;5062205;28;20057;-51
2022/06/23 11:33:18;;;;;;;2.80;1.08;;;27.20;91.80;;;;;;5062062;28;20078;-50
2022/06/23 11:35:54;;;;;;;5.15;1.60;;;27.30;91.70;;;;;;5062107;28;20051;-53
2022/06/23 11:38:23;;;;;;;3.10;1.40;;;27.30;91.60;;;;;;5063990;28;20389;-55
2022/06/23 11:41:23;;;;;;;3.28;1.15;;;27.40;91.40;;;;;;5063880;28;20100;-51
2022/06/23 11:44:05;;;;;;;4.13;1.30;;;27.60;91.10;;;;;;5061675;28;20025;-52
2022/06/23 11:46:58;;;;;;;3.42;0.88;;;27.80;90.90;;;;;;5063859;28;20033;-54
2022/06/23 11:49:49;;;;;;;3.80;0.90;;;27.90;90.60;;;;;;5064286;28;20182;-56
2022/06/23 11:52:27;;;;;;;3.10;0.65;;;27.90;90.50;;;;;;5063645;28;20059;-52
2022/06/23 11:55:07;;;;;;;4.97;0.73;;;27.80;90.60;;;;;;5063551;28;20345;-54
2022/06/23 11:57:47;;;;;;;7.32;1.02;;;27.70;90.80;;;;;;5063685;28;20276;-49
2022/06/23 12:00:23;;;;;;;2.60;1.08;;;27.60;91.00;;;;;;5063112;28;20067;-53
2022/06/23 12:03:22;;;;;;;3.65;0.68;;;27.60;91.30;;;;;;5063783;28;20359;-54
2022/06/23 12:06:04;;;;;;;1.73;0.70;;;27.50;91.40;;;;;;5027789;28;20329;-52
2022/06/23 12:08:42;;;;;;;7.00;1.02;;;27.40;91.40;;;;;;5064080;28;20025;-52
2022/06/23 12:11:09;;;;;;;1.50;0.73;;;27.40;91.50;;;;;;5063567;28;20040;-54
2022/06/23 12:13:37;;;;;;;6.03;1.40;;;27.40;91.70;;;;;;5063899;28;20032;-59
2022/06/23 12:16:05;;;;;;;5.50;1.30;;;27.40;91.70;;;;;;5063482;28;20043;-56
2022/06/23 12:18:48;;;;;;;2.15;1.15;;;27.40;91.60;;;;;;5063693;28;20063;-48
2022/06/23 12:21:24;;;;;;;3.00;1.10;;;27.40;91.80;;;;;;5063457;28;20055;-50
2022/06/23 12:24:03;;;;;;;4.13;1.00;;;27.50;91.60;;;;;;5063774;28;20295;-54
2022/06/23 12:26:36;;;;;;;5.65;1.20;;;27.50;91.70;;;;;;5063181;28;20036;-52
2022/06/23 12:29:25;;;;;;;2.90;0.98;;;27.50;91.70;;;;;;5063829;28;20027;-48
2022/06/23 12:32:38;;;;;;;3.05;1.20;;;27.50;91.80;;;;;;5066139;28;20025;-53
2022/06/23 12:35:18;;;;;;;5.32;0.90;;;27.50;91.70;;;;;;5063984;28;20056;-57
2022/06/23 12:37:54;;;;;;;3.47;0.90;;;27.60;91.80;;;;;;5067070;28;20084;-53
2022/06/23 12:40:46;;;;;;;4.10;1.10;;;27.60;91.80;;;;;;5066677;28;20056;-53
2022/06/23 12:43:27;;;;;;;3.80;0.90;;;27.60;91.80;;;;;;5067323;28;20024;-55
2022/06/23 12:46:16;;;;;;;2.88;0.98;;;27.70;91.90;;;;;;5067054;28;20024;-56
2022/06/23 12:49:07;;;;;;;6.00;1.30;;;27.70;91.80;;;;;;5047819;28;20044;-52
2022/06/23 12:51:58;;;;;;;2.53;0.98;;;27.70;91.70;;;;;;5067239;28;20021;-54
2022/06/23 12:54:30;;;;;;;1.90;0.90;;;27.70;92.00;;;;;;5067086;28;20052;-56
2022/06/23 12:57:06;;;;;;;3.08;1.17;;;27.70;91.90;;;;;;5066719;28;20036;-57
2022/06/23 12:59:50;;;;;;;4.07;0.93;;;27.80;92.00;;;;;;5066420;28;20118;-55
2022/06/23 13:02:35;;;;;;;4.65;1.83;;;27.80;92.00;;;;;;5066485;28;20017;-53
2022/06/23 13:05:26;;;;;;;3.60;1.40;;;27.80;92.10;;;;;;5066776;28;20021;-62
2022/06/23 13:08:20;;;;;;;3.95;1.17;;;27.80;92.10;;;;;;5066852;28;20051;-52
2022/06/23 13:11:21;;;;;;;6.20;1.20;;;27.90;92.20;;;;;;5066304;28;20052;-60
2022/06/23 13:13:55;;;;;;;3.40;1.50;;;27.90;92.00;;;;;;5059739;28;20060;-56
2022/06/23 13:16:31;;;;;;;3.28;1.38;;;27.90;92.10;;;;;;5066349;28;20064;-53
2022/06/23 13:19:27;;;;;;;4.63;1.55;;;27.90;92.20;;;;;;5066557;28;20088;-58
2022/06/23 13:22:06;;;;;;;2.58;1.15;;;27.90;92.20;;;;;;5066266;28;20032;-55
2022/06/23 13:24:35;;;;;;;3.83;1.33;;;27.90;92.30;;;;;;5066167;28;20032;-59
2022/06/23 13:27:10;;;;;;;3.13;0.95;;;28.00;92.40;;;;;;5066201;28;20039;-53
2022/06/23 13:29:55;;;;;;;4.47;1.13;;;28.00;92.50;;;;;;5066106;28;20088;-49
2022/06/23 13:32:37;;;;;;;4.45;1.00;;;28.00;92.40;;;;;;5065924;28;20025;-54
2022/06/23 13:35:09;;;;;;;;;;;28.00;92.40;;;;;;5066143;28;20078;-55
2022/06/23 13:38:13;;;;;;;168.35;8.80;;;28.10;92.40;;;;;;5066368;28;19946;-54
2022/06/23 13:41:01;;;;;;;54.30;3.42;;;28.00;92.50;;;;;;5047087;28;20186;-56
2022/06/23 13:43:33;;;;;;;34.88;2.42;;;28.00;92.50;;;;;;5064691;28;20021;-55
2022/06/23 13:46:02;;;;;;;16.98;1.40;;;28.00;92.50;;;;;;5065875;28;20063;-56
2022/06/23 13:48:39;;;;;;;18.50;1.48;;;28.10;92.50;;;;;;5066227;28;20024;-52
2022/06/23 13:51:34;;;;;;;14.27;1.58;;;28.10;92.40;;;;;;5065698;28;20029;-54
2022/06/23 13:54:27;;;;;;;16.25;1.80;;;28.10;92.40;;;;;;5065769;28;20025;-53
2022/06/23 13:57:19;;;;;;;15.05;1.15;;;28.10;92.40;;;;;;5049935;28;20290;-55
2022/06/23 14:00:13;;;;;;;7.60;1.10;;;28.10;92.40;;;;;;5065415;28;20051;-52
2022/06/23 14:03:01;;;;;;;3.85;0.80;;;28.20;92.20;;;;;;5065678;28;20060;-54
2022/06/23 14:06:36;;;;;;;8.13;1.00;;;28.20;92.10;;;;;;5064423;28;20029;-51
2022/06/23 14:09:23;;;;;;;7.60;1.00;;;28.20;91.90;;;;;;5032677;28;20397;-58
2022/06/23 14:11:55;;;;;;;8.85;1.00;;;28.20;91.90;;;;;;5042588;28;20029;-51